sensor_id;sensor_type;location;lat;lon;timestamp;temperature;humidity
51837;DHT22;38941;53.254;6.600;2022-10-16T00:01:43;12.80;99.90
51837;DHT22;38941;53.254;6.600;2022-10-16T00:03:45;12.80;99.90
51837;DHT22;38941;53.254;6.600;2022-10-16T00:05:46;12.80;99.90
51837;DHT22;38941;53.254;6.600;2022-10-16T00:07:46;12.90;99.90
51837;DHT22;38941;53.254;6.600;2022-10-16T00:09:50;12.80;99.90
51837;DHT22;38941;53.254;6.600;2022-10-16T00:11:51;12.80;99.90
51837;DHT22;38941;53.254;6.600;2022-10-16T00:13:55;12.80;99.90
51837;DHT22;38941;53.254;6.600;2022-10-16T00:15:57;12.80;99.90
51837;DHT22;38941;53.254;6.600;2022-10-16T00:17:58;12.80;99.90
51837;DHT22;38941;53.254;6.600;2022-10-16T00:19:59;12.80;99.90
51837;DHT22;38941;53.254;6.600;2022-10-16T00:22:00;12.80;99.90
51837;DHT22;38941;53.254;6.600;2022-10-16T00:24:05;12.80;99.90
51837;DHT22;38941;53.254;6.600;2022-10-16T00:26:09;12.80;99.90
51837;DHT22;38941;53.254;6.600;2022-10-16T00:28:13;12.80;99.90
51837;DHT22;38941;53.254;6.600;2022-10-16T00:30:14;12.80;99.90
51837;DHT22;38941;53.254;6.600;2022-10-16T00:32:15;12.80;99.90
51837;DHT22;38941;53.254;6.600;2022-10-16T00:34:16;12.70;99.90
51837;DHT22;38941;53.254;6.600;2022-10-16T00:36:19;12.80;99.90
51837;DHT22;38941;53.254;6.600;2022-10-16T00:38:20;12.80;99.90
51837;DHT22;38941;53.254;6.600;2022-10-16T00:40:21;12.80;99.90
51837;DHT22;38941;53.254;6.600;2022-10-16T00:42:22;12.80;99.90
51837;DHT22;38941;53.254;6.600;2022-10-16T00:44:44;12.70;99.90
51837;DHT22;38941;53.254;6.600;2022-10-16T00:46:45;12.80;99.90
51837;DHT22;38941;53.254;6.600;2022-10-16T00:50:58;12.80;99.90
51837;DHT22;38941;53.254;6.600;2022-10-16T00:53:00;12.80;99.90
51837;DHT22;38941;53.254;6.600;2022-10-16T00:55:04;12.80;99.90
51837;DHT22;38941;53.254;6.600;2022-10-16T00:57:08;12.80;99.90
51837;DHT22;38941;53.254;6.600;2022-10-16T00:59:25;12.80;99.90
51837;DHT22;38941;53.254;6.600;2022-10-16T01:01:26;12.80;99.90
51837;DHT22;38941;53.254;6.600;2022-10-16T01:03:30;12.80;99.90
51837;DHT22;38941;53.254;6.600;2022-10-16T01:05:39;12.80;99.90
51837;DHT22;38941;53.254;6.600;2022-10-16T01:08:12;12.80;99.90
51837;DHT22;38941;53.254;6.600;2022-10-16T01:10:17;12.80;99.90
51837;DHT22;38941;53.254;6.600;2022-10-16T01:14:48;12.90;99.90
51837;DHT22;38941;53.254;6.600;2022-10-16T01:17:09;12.80;99.90
51837;DHT22;38941;53.254;6.600;2022-10-16T01:19:16;12.80;99.90
51837;DHT22;38941;53.254;6.600;2022-10-16T01:21:49;12.80;99.90
51837;DHT22;38941;53.254;6.600;2022-10-16T01:24:12;12.80;99.90
51837;DHT22;38941;53.254;6.600;2022-10-16T01:29:18;12.80;99.90
51837;DHT22;38941;53.254;6.600;2022-10-16T01:31:26;12.80;99.90
51837;DHT22;38941;53.254;6.600;2022-10-16T01:33:34;12.80;99.90
51837;DHT22;38941;53.254;6.600;2022-10-16T01:35:38;12.90;99.90
51837;DHT22;38941;53.254;6.600;2022-10-16T01:37:50;12.90;99.90
51837;DHT22;38941;53.254;6.600;2022-10-16T01:39:55;12.90;99.90
51837;DHT22;38941;53.254;6.600;2022-10-16T01:42:09;12.90;99.90
51837;DHT22;38941;53.254;6.600;2022-10-16T01:44:32;12.90;99.90
51837;DHT22;38941;53.254;6.600;2022-10-16T01:46:35;12.90;99.90
51837;DHT22;38941;53.254;6.600;2022-10-16T01:48:38;12.90;99.90
51837;DHT22;38941;53.254;6.600;2022-10-16T01:50:41;13.00;99.90
51837;DHT22;38941;53.254;6.600;2022-10-16T01:52:47;13.00;99.90
51837;DHT22;38941;53.254;6.600;2022-10-16T01:54:50;12.90;99.90
51837;DHT22;38941;53.254;6.600;2022-10-16T01:56:53;12.90;99.90
51837;DHT22;38941;53.254;6.600;2022-10-16T02:01:05;13.00;99.90
51837;DHT22;38941;53.254;6.600;2022-10-16T02:03:07;13.00;99.90
51837;DHT22;38941;53.254;6.600;2022-10-16T02:05:30;13.00;99.90
51837;DHT22;38941;53.254;6.600;2022-10-16T02:07:31;12.90;99.90
51837;DHT22;38941;53.254;6.600;2022-10-16T02:09:35;12.90;99.90
51837;DHT22;38941;53.254;6.600;2022-10-16T02:11:36;13.00;99.90
51837;DHT22;38941;53.254;6.600;2022-10-16T02:13:59;13.00;99.90
51837;DHT22;38941;53.254;6.600;2022-10-16T02:16:01;13.00;99.90
51837;DHT22;38941;53.254;6.600;2022-10-16T02:18:06;13.00;99.90
51837;DHT22;38941;53.254;6.600;2022-10-16T02:20:10;13.00;99.90
51837;DHT22;38941;53.254;6.600;2022-10-16T02:22:18;13.00;99.90
51837;DHT22;38941;53.254;6.600;2022-10-16T02:26:50;13.00;99.90
51837;DHT22;38941;53.254;6.600;2022-10-16T02:28:56;13.00;99.90
51837;DHT22;38941;53.254;6.600;2022-10-16T02:31:03;13.10;99.90
51837;DHT22;38941;53.254;6.600;2022-10-16T02:33:08;13.00;99.90
51837;DHT22;38941;53.254;6.600;2022-10-16T02:35:10;13.00;99.90
51837;DHT22;38941;53.254;6.600;2022-10-16T02:37:11;13.00;99.90
51837;DHT22;38941;53.254;6.600;2022-10-16T02:39:12;13.00;99.90
51837;DHT22;38941;53.254;6.600;2022-10-16T02:41:14;13.00;99.90
51837;DHT22;38941;53.254;6.600;2022-10-16T02:43:15;13.00;99.90
51837;DHT22;38941;53.254;6.600;2022-10-16T02:45:16;13.00;99.90
51837;DHT22;38941;53.254;6.600;2022-10-16T02:47:17;13.00;99.90
51837;DHT22;38941;53.254;6.600;2022-10-16T02:49:18;13.00;99.90
51837;DHT22;38941;53.254;6.600;2022-10-16T02:51:20;13.00;99.90
51837;DHT22;38941;53.254;6.600;2022-10-16T02:53:21;13.10;99.90
51837;DHT22;38941;53.254;6.600;2022-10-16T02:55:21;13.00;99.90
51837;DHT22;38941;53.254;6.600;2022-10-16T02:57:22;13.00;99.90
51837;DHT22;38941;53.254;6.600;2022-10-16T02:59:23;13.00;99.90
51837;DHT22;38941;53.254;6.600;2022-10-16T03:01:23;13.00;99.90
51837;DHT22;38941;53.254;6.600;2022-10-16T03:03:24;13.10;99.90
51837;DHT22;38941;53.254;6.600;2022-10-16T03:05:26;13.10;99.90
51837;DHT22;38941;53.254;6.600;2022-10-16T03:07:26;13.10;99.90
51837;DHT22;38941;53.254;6.600;2022-10-16T03:09:27;13.10;99.90
51837;DHT22;38941;53.254;6.600;2022-10-16T03:11:28;13.10;99.90
51837;DHT22;38941;53.254;6.600;2022-10-16T03:13:29;13.10;99.90
51837;DHT22;38941;53.254;6.600;2022-10-16T03:15:29;13.10;99.90
51837;DHT22;38941;53.254;6.600;2022-10-16T03:17:35;13.10;99.90
51837;DHT22;38941;53.254;6.600;2022-10-16T03:19:35;13.10;99.90
51837;DHT22;38941;53.254;6.600;2022-10-16T03:21:36;13.10;99.90
51837;DHT22;38941;53.254;6.600;2022-10-16T03:23:37;13.10;99.90
51837;DHT22;38941;53.254;6.600;2022-10-16T03:25:38;13.10;99.90
51837;DHT22;38941;53.254;6.600;2022-10-16T03:27:38;13.10;99.90
51837;DHT22;38941;53.254;6.600;2022-10-16T03:29:39;13.10;99.90
51837;DHT22;38941;53.254;6.600;2022-10-16T03:31:40;13.10;99.90
51837;DHT22;38941;53.254;6.600;2022-10-16T03:33:41;13.20;99.90
51837;DHT22;38941;53.254;6.600;2022-10-16T03:35:41;13.20;99.90
51837;DHT22;38941;53.254;6.600;2022-10-16T03:37:42;13.20;99.90
51837;DHT22;38941;53.254;6.600;2022-10-16T03:39:43;13.20;99.90
51837;DHT22;38941;53.254;6.600;2022-10-16T03:41:43;13.20;99.90
51837;DHT22;38941;53.254;6.600;2022-10-16T03:43:44;13.20;99.90
51837;DHT22;38941;53.254;6.600;2022-10-16T03:45:45;13.20;99.90
51837;DHT22;38941;53.254;6.600;2022-10-16T03:47:45;13.20;99.90
51837;DHT22;38941;53.254;6.600;2022-10-16T03:49:48;13.20;99.90
51837;DHT22;38941;53.254;6.600;2022-10-16T03:51:48;13.20;99.90
51837;DHT22;38941;53.254;6.600;2022-10-16T03:53:49;13.20;99.90
51837;DHT22;38941;53.254;6.600;2022-10-16T03:55:50;13.10;99.90
51837;DHT22;38941;53.254;6.600;2022-10-16T03:57:50;13.10;99.90
51837;DHT22;38941;53.254;6.600;2022-10-16T03:59:51;13.10;99.90
51837;DHT22;38941;53.254;6.600;2022-10-16T04:01:52;13.10;99.90
51837;DHT22;38941;53.254;6.600;2022-10-16T04:03:52;13.10;99.90
51837;DHT22;38941;53.254;6.600;2022-10-16T04:05:53;13.10;99.90
51837;DHT22;38941;53.254;6.600;2022-10-16T04:07:54;13.10;99.90
51837;DHT22;38941;53.254;6.600;2022-10-16T04:09:56;13.00;99.90
51837;DHT22;38941;53.254;6.600;2022-10-16T04:11:59;13.00;99.90
51837;DHT22;38941;53.254;6.600;2022-10-16T04:14:00;13.00;99.90
51837;DHT22;38941;53.254;6.600;2022-10-16T04:16:01;13.00;99.90
51837;DHT22;38941;53.254;6.600;2022-10-16T04:18:03;13.00;99.90
51837;DHT22;38941;53.254;6.600;2022-10-16T04:20:05;12.90;99.90
51837;DHT22;38941;53.254;6.600;2022-10-16T04:22:05;12.80;99.90
51837;DHT22;38941;53.254;6.600;2022-10-16T04:24:06;12.90;99.90
51837;DHT22;38941;53.254;6.600;2022-10-16T04:26:07;12.80;99.90
51837;DHT22;38941;53.254;6.600;2022-10-16T04:28:08;12.80;99.90
51837;DHT22;38941;53.254;6.600;2022-10-16T04:30:09;12.80;99.90
51837;DHT22;38941;53.254;6.600;2022-10-16T04:32:10;12.80;99.90
51837;DHT22;38941;53.254;6.600;2022-10-16T04:34:10;12.80;99.90
51837;DHT22;38941;53.254;6.600;2022-10-16T04:36:12;12.80;99.90
51837;DHT22;38941;53.254;6.600;2022-10-16T04:38:13;12.80;99.90
51837;DHT22;38941;53.254;6.600;2022-10-16T04:40:14;12.80;99.90
51837;DHT22;38941;53.254;6.600;2022-10-16T04:42:15;12.80;99.90
51837;DHT22;38941;53.254;6.600;2022-10-16T04:44:16;12.80;99.90
51837;DHT22;38941;53.254;6.600;2022-10-16T04:46:16;12.80;99.90
51837;DHT22;38941;53.254;6.600;2022-10-16T04:48:18;12.80;99.90
51837;DHT22;38941;53.254;6.600;2022-10-16T04:50:19;12.80;99.90
51837;DHT22;38941;53.254;6.600;2022-10-16T04:52:19;12.80;99.90
51837;DHT22;38941;53.254;6.600;2022-10-16T04:54:22;12.80;99.90
51837;DHT22;38941;53.254;6.600;2022-10-16T04:56:22;12.90;99.90
51837;DHT22;38941;53.254;6.600;2022-10-16T04:58:24;12.90;99.90
51837;DHT22;38941;53.254;6.600;2022-10-16T05:00:25;12.90;99.90
51837;DHT22;38941;53.254;6.600;2022-10-16T05:02:27;12.90;99.90
51837;DHT22;38941;53.254;6.600;2022-10-16T05:04:28;12.90;99.90
51837;DHT22;38941;53.254;6.600;2022-10-16T05:06:29;12.90;99.90
51837;DHT22;38941;53.254;6.600;2022-10-16T05:08:29;12.90;99.90
51837;DHT22;38941;53.254;6.600;2022-10-16T05:10:30;12.90;99.90
51837;DHT22;38941;53.254;6.600;2022-10-16T05:12:31;12.90;99.90
51837;DHT22;38941;53.254;6.600;2022-10-16T05:14:32;12.90;99.90
51837;DHT22;38941;53.254;6.600;2022-10-16T05:16:33;12.90;99.90
51837;DHT22;38941;53.254;6.600;2022-10-16T05:18:34;12.90;99.90
51837;DHT22;38941;53.254;6.600;2022-10-16T05:20:34;12.90;99.90
51837;DHT22;38941;53.254;6.600;2022-10-16T05:22:35;12.90;99.90
51837;DHT22;38941;53.254;6.600;2022-10-16T05:24:36;12.90;99.90
51837;DHT22;38941;53.254;6.600;2022-10-16T05:26:37;12.80;99.90
51837;DHT22;38941;53.254;6.600;2022-10-16T05:28:37;12.90;99.90
51837;DHT22;38941;53.254;6.600;2022-10-16T05:30:38;12.90;99.90
51837;DHT22;38941;53.254;6.600;2022-10-16T05:32:40;12.80;99.90
51837;DHT22;38941;53.254;6.600;2022-10-16T05:34:42;12.90;99.90
51837;DHT22;38941;53.254;6.600;2022-10-16T05:36:43;12.90;99.90
51837;DHT22;38941;53.254;6.600;2022-10-16T05:38:45;12.90;99.90
51837;DHT22;38941;53.254;6.600;2022-10-16T05:40:52;12.90;99.90
51837;DHT22;38941;53.254;6.600;2022-10-16T05:42:56;12.90;99.90
51837;DHT22;38941;53.254;6.600;2022-10-16T05:44:57;12.90;99.90
51837;DHT22;38941;53.254;6.600;2022-10-16T05:46:58;12.90;99.90
51837;DHT22;38941;53.254;6.600;2022-10-16T05:48:59;12.80;99.90
51837;DHT22;38941;53.254;6.600;2022-10-16T05:51:02;12.80;99.90
51837;DHT22;38941;53.254;6.600;2022-10-16T05:53:03;12.80;99.90
51837;DHT22;38941;53.254;6.600;2022-10-16T05:55:04;12.90;99.90
51837;DHT22;38941;53.254;6.600;2022-10-16T05:57:05;12.80;99.90
51837;DHT22;38941;53.254;6.600;2022-10-16T05:59:06;12.80;99.90
51837;DHT22;38941;53.254;6.600;2022-10-16T06:01:11;12.80;99.90
51837;DHT22;38941;53.254;6.600;2022-10-16T06:03:13;12.80;99.90
51837;DHT22;38941;53.254;6.600;2022-10-16T06:05:13;12.80;99.90
51837;DHT22;38941;53.254;6.600;2022-10-16T06:07:15;12.80;99.90
51837;DHT22;38941;53.254;6.600;2022-10-16T06:09:16;12.80;99.90
51837;DHT22;38941;53.254;6.600;2022-10-16T06:11:22;12.80;99.90
51837;DHT22;38941;53.254;6.600;2022-10-16T06:13:23;12.80;99.90
51837;DHT22;38941;53.254;6.600;2022-10-16T06:15:24;12.80;99.90
51837;DHT22;38941;53.254;6.600;2022-10-16T06:17:24;12.80;99.90
51837;DHT22;38941;53.254;6.600;2022-10-16T06:19:25;12.80;99.90
51837;DHT22;38941;53.254;6.600;2022-10-16T06:21:27;12.80;99.90
51837;DHT22;38941;53.254;6.600;2022-10-16T06:23:28;12.80;99.90
51837;DHT22;38941;53.254;6.600;2022-10-16T06:25:30;12.80;99.90
51837;DHT22;38941;53.254;6.600;2022-10-16T06:27:31;12.80;99.90
51837;DHT22;38941;53.254;6.600;2022-10-16T06:29:32;12.80;99.90
51837;DHT22;38941;53.254;6.600;2022-10-16T06:31:35;12.90;99.90
51837;DHT22;38941;53.254;6.600;2022-10-16T06:33:37;12.90;99.90
51837;DHT22;38941;53.254;6.600;2022-10-16T06:35:38;12.90;99.90
51837;DHT22;38941;53.254;6.600;2022-10-16T06:37:39;12.90;99.90
51837;DHT22;38941;53.254;6.600;2022-10-16T06:39:40;12.90;99.90
51837;DHT22;38941;53.254;6.600;2022-10-16T06:41:40;12.90;99.90
51837;DHT22;38941;53.254;6.600;2022-10-16T06:43:42;13.00;99.90
51837;DHT22;38941;53.254;6.600;2022-10-16T06:45:43;13.00;99.90
51837;DHT22;38941;53.254;6.600;2022-10-16T06:47:43;13.00;99.90
51837;DHT22;38941;53.254;6.600;2022-10-16T06:49:44;13.00;99.90
51837;DHT22;38941;53.254;6.600;2022-10-16T06:51:45;13.00;99.90
51837;DHT22;38941;53.254;6.600;2022-10-16T06:53:53;13.00;99.90
51837;DHT22;38941;53.254;6.600;2022-10-16T06:55:57;13.00;99.90
51837;DHT22;38941;53.254;6.600;2022-10-16T06:57:58;13.00;99.90
51837;DHT22;38941;53.254;6.600;2022-10-16T06:59:59;13.10;99.90
51837;DHT22;38941;53.254;6.600;2022-10-16T07:01:59;13.00;99.90
51837;DHT22;38941;53.254;6.600;2022-10-16T07:04:01;13.10;99.90
51837;DHT22;38941;53.254;6.600;2022-10-16T07:06:03;13.10;99.90
51837;DHT22;38941;53.254;6.600;2022-10-16T07:08:04;13.10;99.90
51837;DHT22;38941;53.254;6.600;2022-10-16T07:10:06;13.20;99.90
51837;DHT22;38941;53.254;6.600;2022-10-16T07:12:06;13.20;99.90
51837;DHT22;38941;53.254;6.600;2022-10-16T07:14:17;13.20;99.90
51837;DHT22;38941;53.254;6.600;2022-10-16T07:16:21;13.00;99.90
51837;DHT22;38941;53.254;6.600;2022-10-16T07:18:22;13.20;99.90
51837;DHT22;38941;53.254;6.600;2022-10-16T07:20:26;13.30;99.90
51837;DHT22;38941;53.254;6.600;2022-10-16T07:22:28;13.30;99.90
51837;DHT22;38941;53.254;6.600;2022-10-16T07:24:29;13.30;99.90
51837;DHT22;38941;53.254;6.600;2022-10-16T07:26:32;13.30;99.90
51837;DHT22;38941;53.254;6.600;2022-10-16T07:28:33;13.30;99.90
51837;DHT22;38941;53.254;6.600;2022-10-16T07:30:35;13.30;99.90
51837;DHT22;38941;53.254;6.600;2022-10-16T07:32:37;13.40;99.90
51837;DHT22;38941;53.254;6.600;2022-10-16T07:34:38;13.60;99.90
51837;DHT22;38941;53.254;6.600;2022-10-16T07:36:40;13.40;99.90
51837;DHT22;38941;53.254;6.600;2022-10-16T07:38:40;13.40;99.90
51837;DHT22;38941;53.254;6.600;2022-10-16T07:40:42;13.50;99.90
51837;DHT22;38941;53.254;6.600;2022-10-16T07:42:43;13.40;99.90
51837;DHT22;38941;53.254;6.600;2022-10-16T07:44:45;13.50;99.90
51837;DHT22;38941;53.254;6.600;2022-10-16T07:46:46;13.50;99.90
51837;DHT22;38941;53.254;6.600;2022-10-16T07:48:47;13.40;99.90
51837;DHT22;38941;53.254;6.600;2022-10-16T07:50:48;13.50;99.90
51837;DHT22;38941;53.254;6.600;2022-10-16T07:52:49;13.50;99.90
51837;DHT22;38941;53.254;6.600;2022-10-16T07:54:50;13.50;99.90
51837;DHT22;38941;53.254;6.600;2022-10-16T07:56:51;13.40;99.90
51837;DHT22;38941;53.254;6.600;2022-10-16T07:58:52;13.50;99.90
51837;DHT22;38941;53.254;6.600;2022-10-16T08:00:53;13.50;99.90
51837;DHT22;38941;53.254;6.600;2022-10-16T08:02:54;13.40;99.90
51837;DHT22;38941;53.254;6.600;2022-10-16T08:04:55;13.40;99.90
51837;DHT22;38941;53.254;6.600;2022-10-16T08:06:56;13.50;99.90
51837;DHT22;38941;53.254;6.600;2022-10-16T08:08:57;13.80;99.90
51837;DHT22;38941;53.254;6.600;2022-10-16T08:11:00;13.70;99.90
51837;DHT22;38941;53.254;6.600;2022-10-16T08:13:03;13.60;99.90
51837;DHT22;38941;53.254;6.600;2022-10-16T08:15:05;13.90;99.90
51837;DHT22;38941;53.254;6.600;2022-10-16T08:17:06;14.10;99.90
51837;DHT22;38941;53.254;6.600;2022-10-16T08:19:07;14.90;99.90
51837;DHT22;38941;53.254;6.600;2022-10-16T08:21:13;15.60;99.90
51837;DHT22;38941;53.254;6.600;2022-10-16T08:23:14;16.50;99.90
51837;DHT22;38941;53.254;6.600;2022-10-16T08:25:18;16.70;99.90
51837;DHT22;38941;53.254;6.600;2022-10-16T08:27:19;17.40;99.90
51837;DHT22;38941;53.254;6.600;2022-10-16T08:29:22;17.50;99.90
51837;DHT22;38941;53.254;6.600;2022-10-16T08:31:23;17.90;99.90
51837;DHT22;38941;53.254;6.600;2022-10-16T08:33:24;17.90;99.90
51837;DHT22;38941;53.254;6.600;2022-10-16T08:35:25;17.70;99.90
51837;DHT22;38941;53.254;6.600;2022-10-16T08:37:30;18.00;99.90
51837;DHT22;38941;53.254;6.600;2022-10-16T08:39:31;18.60;99.90
51837;DHT22;38941;53.254;6.600;2022-10-16T08:49:03;18.10;99.90
51837;DHT22;38941;53.254;6.600;2022-10-16T08:51:04;18.50;99.90
51837;DHT22;38941;53.254;6.600;2022-10-16T08:53:09;19.00;99.90
51837;DHT22;38941;53.254;6.600;2022-10-16T08:55:37;19.40;99.90
51837;DHT22;38941;53.254;6.600;2022-10-16T08:57:38;19.30;99.90
51837;DHT22;38941;53.254;6.600;2022-10-16T08:59:39;18.60;99.90
51837;DHT22;38941;53.254;6.600;2022-10-16T09:01:44;18.00;99.90
51837;DHT22;38941;53.254;6.600;2022-10-16T09:11:03;16.20;99.90
51837;DHT22;38941;53.254;6.600;2022-10-16T09:13:19;15.90;99.90
51837;DHT22;38941;53.254;6.600;2022-10-16T09:22:29;16.50;99.90
51837;DHT22;38941;53.254;6.600;2022-10-16T09:24:31;16.50;99.90
51837;DHT22;38941;53.254;6.600;2022-10-16T09:26:32;16.30;99.90
51837;DHT22;38941;53.254;6.600;2022-10-16T09:28:33;16.10;99.90
51837;DHT22;38941;53.254;6.600;2022-10-16T09:30:33;16.00;99.90
51837;DHT22;38941;53.254;6.600;2022-10-16T09:32:34;16.10;99.90
51837;DHT22;38941;53.254;6.600;2022-10-16T09:34:37;16.20;99.90
51837;DHT22;38941;53.254;6.600;2022-10-16T09:36:42;16.80;99.90
51837;DHT22;38941;53.254;6.600;2022-10-16T09:38:45;17.50;99.90
51837;DHT22;38941;53.254;6.600;2022-10-16T09:40:45;18.00;99.90
51837;DHT22;38941;53.254;6.600;2022-10-16T09:42:46;18.20;99.90
51837;DHT22;38941;53.254;6.600;2022-10-16T09:44:49;18.20;99.90
51837;DHT22;38941;53.254;6.600;2022-10-16T09:47:23;18.10;99.90
51837;DHT22;38941;53.254;6.600;2022-10-16T09:49:24;18.00;99.90
51837;DHT22;38941;53.254;6.600;2022-10-16T09:53:43;17.90;99.90
51837;DHT22;38941;53.254;6.600;2022-10-16T09:55:51;18.20;99.90
51837;DHT22;38941;53.254;6.600;2022-10-16T09:57:54;18.00;99.90
51837;DHT22;38941;53.254;6.600;2022-10-16T09:59:56;17.70;99.90
51837;DHT22;38941;53.254;6.600;2022-10-16T10:02:02;17.20;99.90
51837;DHT22;38941;53.254;6.600;2022-10-16T10:04:05;17.50;99.90
51837;DHT22;38941;53.254;6.600;2022-10-16T10:06:21;17.50;99.90
51837;DHT22;38941;53.254;6.600;2022-10-16T10:08:23;17.80;99.90
51837;DHT22;38941;53.254;6.600;2022-10-16T10:10:28;18.00;99.90
51837;DHT22;38941;53.254;6.600;2022-10-16T10:12:31;18.20;99.90
51837;DHT22;38941;53.254;6.600;2022-10-16T10:14:40;18.20;99.90
51837;DHT22;38941;53.254;6.600;2022-10-16T10:16:46;18.40;99.90
51837;DHT22;38941;53.254;6.600;2022-10-16T10:18:58;18.60;99.90
51837;DHT22;38941;53.254;6.600;2022-10-16T10:21:00;18.70;97.60
51837;DHT22;38941;53.254;6.600;2022-10-16T10:23:21;18.80;99.80
51837;DHT22;38941;53.254;6.600;2022-10-16T10:25:44;18.30;98.40
51837;DHT22;38941;53.254;6.600;2022-10-16T10:33:05;18.50;97.30
51837;DHT22;38941;53.254;6.600;2022-10-16T10:40:37;19.10;97.70
51837;DHT22;38941;53.254;6.600;2022-10-16T10:43:06;18.20;97.20
51837;DHT22;38941;53.254;6.600;2022-10-16T10:50:30;18.20;96.80
51837;DHT22;38941;53.254;6.600;2022-10-16T10:55:31;18.20;95.80
51837;DHT22;38941;53.254;6.600;2022-10-16T10:57:59;18.40;96.30
51837;DHT22;38941;53.254;6.600;2022-10-16T11:07:21;19.20;93.60
51837;DHT22;38941;53.254;6.600;2022-10-16T11:09:28;19.10;94.80
51837;DHT22;38941;53.254;6.600;2022-10-16T11:11:41;19.20;94.50
51837;DHT22;38941;53.254;6.600;2022-10-16T11:13:58;19.20;94.60
51837;DHT22;38941;53.254;6.600;2022-10-16T11:16:14;19.10;89.00
51837;DHT22;38941;53.254;6.600;2022-10-16T11:18:22;19.00;92.30
51837;DHT22;38941;53.254;6.600;2022-10-16T11:20:41;18.90;91.00
51837;DHT22;38941;53.254;6.600;2022-10-16T11:22:48;18.80;90.90
51837;DHT22;38941;53.254;6.600;2022-10-16T11:27:08;19.30;91.10
51837;DHT22;38941;53.254;6.600;2022-10-16T11:29:19;19.50;91.10
51837;DHT22;38941;53.254;6.600;2022-10-16T11:33:39;20.20;90.90
51837;DHT22;38941;53.254;6.600;2022-10-16T11:37:53;20.70;84.60
51837;DHT22;38941;53.254;6.600;2022-10-16T11:40:03;20.70;89.00
51837;DHT22;38941;53.254;6.600;2022-10-16T11:42:19;20.60;83.30
51837;DHT22;38941;53.254;6.600;2022-10-16T11:46:46;20.80;85.80
51837;DHT22;38941;53.254;6.600;2022-10-16T11:49:01;20.90;87.70
51837;DHT22;38941;53.254;6.600;2022-10-16T11:53:34;21.10;82.20
51837;DHT22;38941;53.254;6.600;2022-10-16T11:55:42;21.10;84.80
51837;DHT22;38941;53.254;6.600;2022-10-16T11:57:56;21.40;85.00
51837;DHT22;38941;53.254;6.600;2022-10-16T11:59:59;21.50;81.40
51837;DHT22;38941;53.254;6.600;2022-10-16T12:04:48;21.30;82.00
51837;DHT22;38941;53.254;6.600;2022-10-16T12:08:54;20.70;83.20
51837;DHT22;38941;53.254;6.600;2022-10-16T12:11:19;20.30;83.20
51837;DHT22;38941;53.254;6.600;2022-10-16T12:13:41;20.40;82.50
51837;DHT22;38941;53.254;6.600;2022-10-16T12:15:42;20.10;80.70
51837;DHT22;38941;53.254;6.600;2022-10-16T12:17:44;20.10;84.60
51837;DHT22;38941;53.254;6.600;2022-10-16T12:19:44;20.20;85.00
51837;DHT22;38941;53.254;6.600;2022-10-16T12:22:02;20.00;83.80
51837;DHT22;38941;53.254;6.600;2022-10-16T12:24:04;20.10;83.10
51837;DHT22;38941;53.254;6.600;2022-10-16T12:26:05;19.90;83.20
51837;DHT22;38941;53.254;6.600;2022-10-16T12:28:16;19.90;82.60
51837;DHT22;38941;53.254;6.600;2022-10-16T12:30:23;19.80;82.60
51837;DHT22;38941;53.254;6.600;2022-10-16T12:32:42;19.80;81.90
51837;DHT22;38941;53.254;6.600;2022-10-16T12:34:43;19.60;78.60
51837;DHT22;38941;53.254;6.600;2022-10-16T12:36:45;19.50;81.20
51837;DHT22;38941;53.254;6.600;2022-10-16T12:38:49;19.30;81.50
51837;DHT22;38941;53.254;6.600;2022-10-16T12:41:08;19.20;81.70
51837;DHT22;38941;53.254;6.600;2022-10-16T12:45:28;19.10;81.50
51837;DHT22;38941;53.254;6.600;2022-10-16T12:49:37;19.20;82.90
51837;DHT22;38941;53.254;6.600;2022-10-16T12:51:42;19.30;82.80
51837;DHT22;38941;53.254;6.600;2022-10-16T12:53:43;19.50;83.10
51837;DHT22;38941;53.254;6.600;2022-10-16T13:21:26;19.80;80.20
51837;DHT22;38941;53.254;6.600;2022-10-16T13:26:39;20.20;79.00
51837;DHT22;38941;53.254;6.600;2022-10-16T13:28:22;20.20;78.90
51837;DHT22;38941;53.254;6.600;2022-10-16T13:30:30;20.20;78.90
51837;DHT22;38941;53.254;6.600;2022-10-16T13:32:35;20.20;78.10
51837;DHT22;38941;53.254;6.600;2022-10-16T13:34:44;20.10;76.20
51837;DHT22;38941;53.254;6.600;2022-10-16T13:36:50;20.10;74.70
51837;DHT22;38941;53.254;6.600;2022-10-16T13:39:10;20.10;76.30
51837;DHT22;38941;53.254;6.600;2022-10-16T13:41:20;19.90;75.00
51837;DHT22;38941;53.254;6.600;2022-10-16T13:43:41;19.90;74.70
51837;DHT22;38941;53.254;6.600;2022-10-16T13:45:56;19.90;74.60
51837;DHT22;38941;53.254;6.600;2022-10-16T13:48:09;20.20;74.60
51837;DHT22;38941;53.254;6.600;2022-10-16T13:50:17;20.70;73.30
51837;DHT22;38941;53.254;6.600;2022-10-16T13:52:19;21.20;72.60
51837;DHT22;38941;53.254;6.600;2022-10-16T13:54:21;21.80;70.40
51837;DHT22;38941;53.254;6.600;2022-10-16T13:56:25;22.30;69.20
51837;DHT22;38941;53.254;6.600;2022-10-16T13:58:27;22.90;68.30
51837;DHT22;38941;53.254;6.600;2022-10-16T14:00:29;23.20;66.70
51837;DHT22;38941;53.254;6.600;2022-10-16T14:02:36;23.50;65.60
51837;DHT22;38941;53.254;6.600;2022-10-16T14:04:39;23.70;64.50
51837;DHT22;38941;53.254;6.600;2022-10-16T14:06:42;24.00;64.40
51837;DHT22;38941;53.254;6.600;2022-10-16T14:08:45;24.80;64.00
51837;DHT22;38941;53.254;6.600;2022-10-16T14:10:51;23.50;61.50
51837;DHT22;38941;53.254;6.600;2022-10-16T14:12:59;24.80;62.10
51837;DHT22;38941;53.254;6.600;2022-10-16T14:15:01;25.50;60.20
51837;DHT22;38941;53.254;6.600;2022-10-16T14:17:03;25.80;60.40
51837;DHT22;38941;53.254;6.600;2022-10-16T14:19:04;25.90;59.00
51837;DHT22;38941;53.254;6.600;2022-10-16T14:21:12;25.70;58.50
51837;DHT22;38941;53.254;6.600;2022-10-16T14:25:26;25.60;57.30
51837;DHT22;38941;53.254;6.600;2022-10-16T14:27:31;25.70;58.00
51837;DHT22;38941;53.254;6.600;2022-10-16T14:29:32;26.00;57.90
51837;DHT22;38941;53.254;6.600;2022-10-16T14:31:33;25.90;58.10
51837;DHT22;38941;53.254;6.600;2022-10-16T14:33:36;25.70;58.20
51837;DHT22;38941;53.254;6.600;2022-10-16T14:35:39;25.50;59.20
51837;DHT22;38941;53.254;6.600;2022-10-16T14:37:40;25.10;59.10
51837;DHT22;38941;53.254;6.600;2022-10-16T14:39:49;24.70;60.60
51837;DHT22;38941;53.254;6.600;2022-10-16T14:41:51;24.80;58.40
51837;DHT22;38941;53.254;6.600;2022-10-16T14:43:57;24.80;59.90
51837;DHT22;38941;53.254;6.600;2022-10-16T14:46:05;24.70;58.80
51837;DHT22;38941;53.254;6.600;2022-10-16T14:48:17;24.30;59.90
51837;DHT22;38941;53.254;6.600;2022-10-16T14:50:18;23.90;59.70
51837;DHT22;38941;53.254;6.600;2022-10-16T14:52:19;23.50;62.30
51837;DHT22;38941;53.254;6.600;2022-10-16T14:54:20;22.90;63.50
51837;DHT22;38941;53.254;6.600;2022-10-16T14:56:23;22.50;64.70
51837;DHT22;38941;53.254;6.600;2022-10-16T14:58:24;22.10;65.60